Leisure City, Florida
Current Conditions -  °F | °C
As of 5:58 PM on Saturday 20 Dec 2014 (Local Time) from KHST Reporting Station
Clear Clear  
Wind Chill: 71°   Ceiling: Unl
Heat Index: 71°   Visibility: 10mi
Dew Point: 64°   Wind: 6mph
Humidity: 80%   Direction: 90°E
Pressure: 30.04"   Gusts: NA
Location:  25.5°N, 80.43°W
Report Text: KHST 202258Z AUTO 09005KT 10SM CLR 21/18 A3004 RMK AO2 SLP176 T02140178 $
Loading
Personal Weather Stations






























Interactive Weather Map New forecast layout! Learn more

10-Day Weather Forecast

Advertisements
Track Severe Weather on mobile